createdAt,value
2019-01-15T00:00:08.100Z,73.78
2019-01-15T00:02:36.679Z,73.74
2019-01-15T00:05:06.661Z,73.46
2019-01-15T00:07:35.120Z,73.51
2019-01-15T00:10:05.375Z,73.30
2019-01-15T00:12:33.878Z,73.43
2019-01-15T00:15:02.383Z,73.69
2019-01-15T00:17:32.444Z,73.66
2019-01-15T00:20:00.926Z,73.84
2019-01-15T00:22:29.485Z,73.87
2019-01-15T00:24:57.922Z,73.88
2019-01-15T00:27:26.484Z,73.99
2019-01-15T00:29:54.927Z,73.96
2019-01-15T00:32:23.372Z,73.92
2019-01-15T00:34:53.344Z,73.80
2019-01-15T00:37:21.793Z,73.80
2019-01-15T00:39:51.889Z,73.99
2019-01-15T00:42:20.361Z,74.21
2019-01-15T00:44:48.821Z,74.19
2019-01-15T00:47:17.332Z,74.42
2019-01-15T00:49:46.074Z,74.50
2019-01-15T00:52:14.579Z,74.35
2019-01-15T00:54:44.785Z,74.16
2019-01-15T00:57:13.202Z,74.26
2019-01-15T00:59:41.683Z,74.51
2019-01-15T01:02:10.201Z,74.76
2019-01-15T01:04:38.725Z,74.53
2019-01-15T01:07:07.239Z,74.84
2019-01-15T01:09:35.927Z,74.70
2019-01-15T01:12:04.411Z,74.77
2019-01-15T01:14:32.833Z,74.87
2019-01-15T01:17:01.435Z,74.92
2019-01-15T01:19:29.875Z,75.22
2019-01-15T01:21:58.421Z,75.08
2019-01-15T01:24:28.092Z,75.14
2019-01-15T01:26:56.548Z,75.20
2019-01-15T01:29:24.971Z,75.28
2019-01-15T01:31:55.083Z,75.67
2019-01-15T01:34:25.067Z,75.88
2019-01-15T01:36:53.516Z,75.82
2019-01-15T01:39:21.985Z,76.00
2019-01-15T01:41:51.813Z,76.10
2019-01-15T01:44:20.279Z,76.11
2019-01-15T01:46:48.729Z,76.26
2019-01-15T01:49:17.257Z,76.22
2019-01-15T01:51:45.707Z,76.50
2019-01-15T01:54:14.177Z,76.80
2019-01-15T01:56:42.662Z,76.56
2019-01-15T01:59:11.107Z,76.64
2019-01-15T02:01:39.538Z,76.24
2019-01-15T02:04:07.993Z,76.80
2019-01-15T02:06:37.984Z,76.66
2019-01-15T02:09:07.976Z,76.86
2019-01-15T02:11:36.588Z,76.85
2019-01-15T02:14:05.198Z,76.91
2019-01-15T02:16:33.648Z,76.84
2019-01-15T02:19:02.084Z,77.09
2019-01-15T02:21:30.553Z,77.44
2019-01-15T02:24:01.452Z,77.29
2019-01-15T02:26:32.597Z,77.82
2019-01-15T02:29:01.026Z,77.54
2019-01-15T02:31:29.523Z,77.04
2019-01-15T02:33:57.950Z,76.97
2019-01-15T02:36:26.434Z,76.66
2019-01-15T02:38:54.838Z,76.56
2019-01-15T02:41:23.387Z,76.92
2019-01-15T02:43:53.859Z,77.02
2019-01-15T02:46:22.326Z,77.00
2019-01-15T02:48:50.845Z,76.88
2019-01-15T02:51:19.797Z,77.00
2019-01-15T02:53:48.274Z,76.94
2019-01-15T02:56:16.764Z,77.34
2019-01-15T02:58:46.705Z,77.09
2019-01-15T03:01:15.159Z,76.93
2019-01-15T03:03:43.697Z,77.22
2019-01-15T03:06:12.343Z,77.02
2019-01-15T03:08:40.747Z,76.81
2019-01-15T03:11:09.204Z,76.60
2019-01-15T03:13:39.737Z,76.64
2019-01-15T03:16:08.269Z,76.33
2019-01-15T03:18:36.714Z,76.31
2019-01-15T03:21:05.304Z,75.95
2019-01-15T03:23:33.759Z,76.12
2019-01-15T03:26:02.339Z,75.96
2019-01-15T03:28:30.765Z,76.03
2019-01-15T03:31:02.297Z,75.87
2019-01-15T03:33:30.781Z,76.06
2019-01-15T03:36:00.170Z,76.01
2019-01-15T03:38:28.609Z,75.92
2019-01-15T03:40:57.062Z,75.90
2019-01-15T03:43:25.501Z,75.93
2019-01-15T03:45:54.004Z,75.67
2019-01-15T03:48:22.451Z,75.59
2019-01-15T03:50:50.939Z,75.11
2019-01-15T03:53:21.088Z,74.96
2019-01-15T03:55:49.645Z,74.86
2019-01-15T03:58:18.094Z,74.94
2019-01-15T04:00:46.606Z,74.77
2019-01-15T04:03:15.166Z,74.83
2019-01-15T04:05:43.637Z,74.71
2019-01-15T04:08:12.093Z,74.70
2019-01-15T04:10:40.585Z,74.40
2019-01-15T04:13:11.452Z,74.15
2019-01-15T04:15:39.240Z,74.12
2019-01-15T04:18:07.824Z,74.21
2019-01-15T04:20:36.396Z,73.99
2019-01-15T04:23:04.916Z,73.94
2019-01-15T04:25:33.408Z,73.79
2019-01-15T04:28:01.975Z,73.86
2019-01-15T04:30:30.669Z,73.48
2019-01-15T04:32:59.154Z,73.47
2019-01-15T04:35:27.552Z,73.37
2019-01-15T04:37:56.048Z,73.15
2019-01-15T04:40:24.474Z,73.21
2019-01-15T04:42:52.992Z,73.05
2019-01-15T04:45:23.523Z,72.83
2019-01-15T04:47:52.041Z,72.66
2019-01-15T04:50:20.640Z,72.77
2019-01-15T04:52:50.846Z,72.33
2019-01-15T04:55:19.419Z,72.09
2019-01-15T04:57:47.876Z,72.48
2019-01-15T05:00:18.978Z,72.15
2019-01-15T05:02:48.007Z,71.94
2019-01-15T05:05:16.780Z,71.40
2019-01-15T05:07:45.369Z,71.17
2019-01-15T05:10:15.444Z,70.89
2019-01-15T05:12:44.008Z,70.94
2019-01-15T05:15:16.929Z,70.42
2019-01-15T05:17:45.497Z,70.32
2019-01-15T05:20:18.646Z,71.10
2019-01-15T05:22:47.405Z,70.72
2019-01-15T05:25:18.711Z,70.58
2019-01-15T05:27:47.192Z,70.45
2019-01-15T05:30:24.078Z,70.25
2019-01-15T05:32:52.657Z,70.53
2019-01-15T05:35:21.162Z,70.23
2019-01-15T05:37:51.018Z,70.39
2019-01-15T05:40:20.136Z,70.09
2019-01-15T05:42:48.815Z,70.01
2019-01-15T05:45:21.110Z,70.02
2019-01-15T05:47:51.514Z,70.10
2019-01-15T05:50:21.738Z,70.00
2019-01-15T05:52:50.254Z,69.83
2019-01-15T05:55:18.679Z,70.18
2019-01-15T05:57:47.190Z,70.05
2019-01-15T06:00:18.719Z,69.93
2019-01-15T06:02:47.189Z,69.91
2019-01-15T06:05:16.369Z,70.12
2019-01-15T06:07:44.849Z,69.94
2019-01-15T06:10:15.300Z,69.83
2019-01-15T06:12:43.831Z,69.69
2019-01-15T06:15:14.559Z,69.73
2019-01-15T06:17:42.999Z,69.88
2019-01-15T06:20:23.361Z,72.90
2019-01-15T06:22:51.919Z,72.20
2019-01-15T06:25:20.721Z,70.65
2019-01-15T06:27:51.010Z,70.81
2019-01-15T06:30:22.609Z,70.71
2019-01-15T06:32:51.039Z,70.57
2019-01-15T06:35:19.647Z,70.61
2019-01-15T06:37:48.188Z,70.84
2019-01-15T06:40:20.807Z,70.92
2019-01-15T06:42:49.448Z,70.93
2019-01-15T06:45:31.490Z,70.87
2019-01-15T06:48:01.936Z,71.02
2019-01-15T06:50:30.377Z,71.14
2019-01-15T06:52:58.898Z,71.29
2019-01-15T06:55:31.819Z,71.45
2019-01-15T06:58:00.227Z,71.57
2019-01-15T07:00:30.515Z,71.53
2019-01-15T07:03:00.213Z,72.20
2019-01-15T07:05:29.046Z,72.59
2019-01-15T07:07:57.471Z,72.78
2019-01-15T07:10:28.951Z,72.76
2019-01-15T07:12:57.502Z,72.96
2019-01-15T07:15:26.061Z,73.34
2019-01-15T07:17:56.889Z,73.54
2019-01-15T07:20:25.437Z,73.86
2019-01-15T07:22:54.048Z,73.89
2019-01-15T07:25:24.696Z,74.06
2019-01-15T07:27:53.186Z,74.08
2019-01-15T07:30:36.767Z,74.34
2019-01-15T07:33:06.154Z,74.70
2019-01-15T07:35:35.112Z,75.03
2019-01-15T07:38:03.619Z,74.92
2019-01-15T07:40:32.072Z,75.44
2019-01-15T07:43:00.654Z,75.57
2019-01-15T07:45:29.243Z,75.72
2019-01-15T07:47:57.753Z,76.12
2019-01-15T07:50:26.256Z,76.53
2019-01-15T07:52:54.836Z,76.54
2019-01-15T07:55:23.501Z,77.25
2019-01-15T07:57:52.061Z,77.48
2019-01-15T08:00:25.079Z,77.69
2019-01-15T08:02:54.395Z,78.11
2019-01-15T08:05:24.695Z,78.21
2019-01-15T08:07:53.199Z,78.03
2019-01-15T08:10:21.742Z,78.30
2019-01-15T08:12:50.741Z,78.16
2019-01-15T08:15:24.890Z,78.25
2019-01-15T08:17:53.329Z,78.24
2019-01-15T08:20:22.026Z,78.46
2019-01-15T08:22:50.566Z,78.28
2019-01-15T08:25:19.500Z,78.78
2019-01-15T08:27:48.000Z,78.82
2019-01-15T08:30:28.218Z,78.78
2019-01-15T08:32:58.235Z,78.52
2019-01-15T08:35:26.753Z,78.79
2019-01-15T08:37:55.455Z,79.08
2019-01-15T08:40:24.097Z,78.89
2019-01-15T08:42:52.607Z,78.99
2019-01-15T08:45:21.159Z,79.24
2019-01-15T08:47:54.351Z,79.16
2019-01-15T08:50:30.827Z,79.64
2019-01-15T08:52:59.414Z,80.44
2019-01-15T08:55:28.009Z,80.63
2019-01-15T08:57:56.515Z,80.46
2019-01-15T09:00:25.071Z,80.47
2019-01-15T09:02:53.526Z,80.24
2019-01-15T09:05:22.146Z,80.42
2019-01-15T09:07:52.108Z,80.49
2019-01-15T09:10:20.636Z,80.80
2019-01-15T09:12:49.235Z,80.52
2019-01-15T09:15:22.123Z,80.76
2019-01-15T09:17:50.740Z,81.18
2019-01-15T09:20:20.927Z,80.91
2019-01-15T09:22:51.164Z,81.18
2019-01-15T09:25:19.695Z,81.07
2019-01-15T09:27:48.282Z,80.88
2019-01-15T09:30:18.869Z,81.06
2019-01-15T09:32:47.512Z,81.05
2019-01-15T09:35:16.050Z,80.67
2019-01-15T09:37:46.042Z,80.59
2019-01-15T09:40:17.381Z,80.80
2019-01-15T09:42:45.932Z,80.76
2019-01-15T09:45:16.672Z,80.51
2019-01-15T09:47:49.592Z,80.55
2019-01-15T09:50:19.654Z,80.34
2019-01-15T09:52:48.313Z,80.10
2019-01-15T09:55:16.951Z,80.28
2019-01-15T09:57:45.522Z,80.25
2019-01-15T10:00:16.732Z,80.00
2019-01-15T10:02:45.354Z,80.11
2019-01-15T10:05:13.887Z,80.07
2019-01-15T10:07:42.417Z,80.19
2019-01-15T10:10:13.846Z,80.38
2019-01-15T10:12:42.341Z,80.37
2019-01-15T10:15:14.022Z,80.32
2019-01-15T10:17:42.743Z,80.07
2019-01-15T10:20:13.069Z,80.01
2019-01-15T10:22:41.682Z,80.18
2019-01-15T10:25:12.200Z,80.22
2019-01-15T10:27:41.281Z,80.56
2019-01-15T10:30:20.004Z,80.60
2019-01-15T10:32:51.494Z,80.60
2019-01-15T10:35:22.998Z,80.77
2019-01-15T10:37:51.540Z,80.83
2019-01-15T10:40:20.006Z,80.67
2019-01-15T10:42:51.290Z,80.42
2019-01-15T10:45:20.057Z,80.52
2019-01-15T10:47:48.588Z,80.61
2019-01-15T10:50:17.359Z,80.43
2019-01-15T10:52:45.792Z,80.69
2019-01-15T10:55:14.271Z,80.62
2019-01-15T10:57:42.881Z,80.41
2019-01-15T11:00:13.653Z,80.33
2019-01-15T11:02:43.759Z,80.33
2019-01-15T11:05:12.860Z,80.32
2019-01-15T11:07:41.338Z,80.27
2019-01-15T11:10:12.833Z,80.24
2019-01-15T11:12:41.752Z,79.86
2019-01-15T11:15:10.328Z,80.04
2019-01-15T11:17:38.874Z,80.07
2019-01-15T11:20:13.327Z,80.15
2019-01-15T11:22:43.316Z,79.93
2019-01-15T11:25:11.919Z,79.74
2019-01-15T11:27:40.375Z,79.81
2019-01-15T11:30:11.928Z,79.81
2019-01-15T11:32:40.353Z,79.87
2019-01-15T11:35:13.036Z,80.09
2019-01-15T11:37:41.495Z,80.43
2019-01-15T11:40:15.968Z,80.76
2019-01-15T11:42:44.475Z,80.38
2019-01-15T11:45:18.832Z,80.63
2019-01-15T11:47:47.808Z,80.59
2019-01-15T11:50:18.708Z,80.82
2019-01-15T11:52:47.320Z,80.94
2019-01-15T11:55:15.816Z,81.25
2019-01-15T11:57:45.753Z,81.21
2019-01-15T12:00:36.816Z,82.25
2019-01-15T12:03:10.586Z,82.22
2019-01-15T12:05:58.090Z,82.24
2019-01-15T12:08:44.243Z,81.78
2019-01-15T12:11:14.386Z,82.02
2019-01-15T12:13:53.950Z,81.66
2019-01-15T12:16:29.964Z,81.69
2019-01-15T12:19:09.346Z,81.69
2019-01-15T12:21:45.138Z,81.44
2019-01-15T12:24:18.331Z,81.36
2019-01-15T12:27:00.737Z,81.17
2019-01-15T12:29:47.029Z,81.12
2019-01-15T12:32:17.124Z,81.28
2019-01-15T12:35:03.331Z,81.21
2019-01-15T12:37:33.621Z,81.22
2019-01-15T12:40:09.973Z,81.39
2019-01-15T12:42:48.780Z,81.22
2019-01-15T12:45:35.848Z,81.07
2019-01-15T12:48:18.647Z,80.61
2019-01-15T12:50:51.405Z,80.61
2019-01-15T12:53:27.627Z,80.54
2019-01-15T12:56:12.962Z,80.54
2019-01-15T12:58:43.106Z,79.95
2019-01-15T13:01:28.419Z,79.79
2019-01-15T13:04:04.283Z,79.81
2019-01-15T13:06:53.759Z,79.49
2019-01-15T13:09:29.764Z,79.49
2019-01-15T13:12:15.068Z,79.58
2019-01-15T13:14:53.980Z,79.37
2019-01-15T13:17:40.225Z,79.41
2019-01-15T13:20:13.417Z,79.38
2019-01-15T13:22:55.626Z,79.80
2019-01-15T13:25:42.340Z,79.75
2019-01-15T13:28:28.310Z,79.96
2019-01-15T13:31:02.557Z,79.96
2019-01-15T13:33:38.833Z,79.96
2019-01-15T13:36:27.651Z,79.96
2019-01-15T13:39:13.720Z,80.19
2019-01-15T13:41:46.657Z,80.12
2019-01-15T13:44:19.456Z,80.17
2019-01-15T13:47:01.409Z,79.42
2019-01-15T13:49:43.919Z,79.42
2019-01-15T13:52:30.516Z,79.65
2019-01-15T13:55:00.759Z,79.31
2019-01-15T13:57:30.971Z,79.86
2019-01-15T14:00:19.164Z,79.97
2019-01-15T14:03:01.430Z,79.97
2019-01-15T14:05:37.531Z,79.79
2019-01-15T14:08:10.214Z,79.71
2019-01-15T14:10:43.064Z,79.74
2019-01-15T14:13:41.928Z,79.44
2019-01-15T14:16:15.197Z,79.35
2019-01-15T14:18:47.602Z,79.15
2019-01-15T14:21:20.577Z,79.10
2019-01-15T14:23:50.750Z,79.03
2019-01-15T14:26:29.956Z,78.93
2019-01-15T14:29:09.170Z,78.67
2019-01-15T14:31:44.945Z,78.64
2019-01-15T14:34:27.086Z,78.51
2019-01-15T14:36:57.179Z,78.55
2019-01-15T14:39:36.234Z,78.60
2019-01-15T14:42:09.331Z,78.65
2019-01-15T14:44:45.169Z,78.51
2019-01-15T14:47:33.412Z,78.51
2019-01-15T14:50:12.742Z,78.46
2019-01-15T14:52:45.636Z,78.62
2019-01-15T14:55:32.794Z,78.70
2019-01-15T14:58:02.907Z,78.36
2019-01-15T15:00:49.429Z,78.31
2019-01-15T15:03:36.085Z,78.31
2019-01-15T15:06:12.844Z,78.37
2019-01-15T15:08:43.052Z,78.36
2019-01-15T15:11:27.899Z,78.46
2019-01-15T15:14:14.464Z,78.59
2019-01-15T15:16:47.999Z,78.37
2019-01-15T15:19:27.037Z,78.44
2019-01-15T15:22:06.203Z,78.62
2019-01-15T15:24:36.383Z,78.59
2019-01-15T15:27:06.683Z,78.75
2019-01-15T15:29:36.830Z,78.72
2019-01-15T15:32:22.902Z,79.05
2019-01-15T15:34:53.092Z,78.67
2019-01-15T15:37:29.180Z,78.61
2019-01-15T15:39:59.368Z,78.46
2019-01-15T15:42:32.004Z,78.48
2019-01-15T15:45:05.919Z,78.64
2019-01-15T15:47:54.440Z,79.16
2019-01-15T15:50:39.322Z,79.16
2019-01-15T15:53:12.123Z,78.99
2019-01-15T15:55:58.162Z,79.19
2019-01-15T15:58:29.412Z,79.19
2019-01-15T16:01:02.192Z,79.02
2019-01-15T16:03:35.097Z,79.21
2019-01-15T16:06:07.970Z,79.21
2019-01-15T16:08:44.070Z,78.61
2019-01-15T16:11:31.489Z,78.56
2019-01-15T16:14:03.951Z,77.91
2019-01-15T16:16:37.208Z,77.91
2019-01-15T16:19:10.258Z,78.37
2019-01-15T16:21:58.618Z,78.03
2019-01-15T16:24:36.398Z,77.98
2019-01-15T16:27:09.514Z,78.03
2019-01-15T16:29:45.516Z,78.14
2019-01-15T16:32:30.616Z,78.13
2019-01-15T16:35:00.817Z,77.82
2019-01-15T16:37:36.486Z,78.49
2019-01-15T16:40:14.859Z,78.49
2019-01-15T16:42:47.478Z,78.11
2019-01-15T16:45:34.011Z,78.22
2019-01-15T16:48:12.967Z,78.14
2019-01-15T16:50:58.913Z,78.06
2019-01-15T16:53:38.180Z,78.25
2019-01-15T16:56:08.381Z,78.33
2019-01-15T16:58:38.530Z,78.49
2019-01-15T17:01:24.934Z,78.65
2019-01-15T17:04:02.419Z,79.25
2019-01-15T17:06:44.668Z,79.25
2019-01-15T17:09:21.073Z,79.70
2019-01-15T17:12:07.388Z,79.63
2019-01-15T17:14:52.717Z,79.63
2019-01-15T17:17:35.220Z,81.08
2019-01-15T17:20:15.329Z,81.08
2019-01-15T17:22:45.424Z,81.55
2019-01-15T17:25:15.729Z,82.09
2019-01-15T17:27:51.754Z,82.98
2019-01-15T17:30:21.922Z,83.64
2019-01-15T17:33:10.163Z,83.64
2019-01-15T17:35:43.117Z,84.65
2019-01-15T17:38:19.317Z,84.65
2019-01-15T17:40:52.259Z,84.72
2019-01-15T17:43:22.331Z,85.85
2019-01-15T17:45:55.241Z,85.86
2019-01-15T17:48:41.697Z,85.52
2019-01-15T17:51:21.167Z,86.70
2019-01-15T17:54:03.196Z,85.49
2019-01-15T17:56:42.285Z,85.91
2019-01-15T17:59:18.104Z,85.91
2019-01-15T18:01:56.831Z,85.45
2019-01-15T18:04:29.452Z,85.92
2019-01-15T18:06:59.674Z,85.92
2019-01-15T18:09:29.834Z,85.59
2019-01-15T18:12:09.393Z,85.77
2019-01-15T18:14:39.562Z,86.53
2019-01-15T18:17:12.530Z,85.98
2019-01-15T18:19:58.640Z,85.53
2019-01-15T18:22:37.644Z,85.94
2019-01-15T18:25:14.841Z,85.88
2019-01-15T18:27:56.790Z,85.88
2019-01-15T18:30:45.012Z,85.32
2019-01-15T18:33:15.415Z,85.12
2019-01-15T18:35:50.047Z,85.00
2019-01-15T18:38:20.162Z,84.69
2019-01-15T18:40:55.899Z,84.69
2019-01-15T18:43:44.072Z,84.88
2019-01-15T18:46:16.821Z,84.72
2019-01-15T18:48:56.731Z,85.02
2019-01-15T18:51:33.051Z,84.97
2019-01-15T18:54:09.058Z,85.06
2019-01-15T18:56:54.357Z,84.66
2019-01-15T18:59:33.413Z,84.70
2019-01-15T19:02:30.203Z,84.47
2019-01-15T19:05:18.504Z,84.47
2019-01-15T19:07:57.801Z,84.81
2019-01-15T19:10:27.899Z,84.81
2019-01-15T19:13:00.807Z,85.23
2019-01-15T19:15:48.953Z,85.05
2019-01-15T19:18:25.703Z,85.07
2019-01-15T19:20:55.768Z,85.42
2019-01-15T19:23:38.275Z,86.05
2019-01-15T19:26:08.450Z,86.28
2019-01-15T19:28:38.547Z,86.28
2019-01-15T19:31:08.634Z,86.60
2019-01-15T19:33:44.496Z,87.00
2019-01-15T19:36:14.603Z,87.09
2019-01-15T19:38:47.154Z,87.09
2019-01-15T19:41:26.041Z,87.26
2019-01-15T19:43:58.908Z,87.36
2019-01-15T19:46:29.144Z,87.76
2019-01-15T19:48:59.381Z,87.82
2019-01-15T19:51:32.253Z,88.08
2019-01-15T19:54:04.765Z,88.17
2019-01-15T19:56:34.920Z,88.17
2019-01-15T19:59:16.830Z,87.68
2019-01-15T20:01:49.774Z,87.87
2019-01-15T20:04:36.865Z,87.55
2019-01-15T20:07:08.890Z,87.63
2019-01-15T20:09:54.349Z,87.62
2019-01-15T20:12:34.346Z,87.62
2019-01-15T20:15:05.599Z,88.25
2019-01-15T20:17:55.439Z,87.89
2019-01-15T20:20:32.041Z,87.89
2019-01-15T20:23:30.105Z,88.28
2019-01-15T20:26:08.652Z,87.82
2019-01-15T20:32:04.481Z,88.10
2019-01-15T20:34:47.581Z,87.84
2019-01-15T20:40:50.931Z,88.03
2019-01-15T20:43:34.230Z,88.03
2019-01-15T20:46:07.559Z,88.43
2019-01-15T20:48:54.314Z,88.71
2019-01-15T20:51:27.891Z,88.09
2019-01-15T20:54:08.486Z,88.09
2019-01-15T20:56:57.188Z,88.27
2019-01-15T20:59:30.932Z,88.27
2019-01-15T21:02:04.099Z,87.53
2019-01-15T21:04:50.474Z,87.22
2019-01-15T21:07:29.874Z,87.15
2019-01-15T21:10:00.486Z,87.10
2019-01-15T21:12:33.711Z,87.04
2019-01-15T21:15:06.897Z,87.00
2019-01-15T21:17:44.894Z,86.79
2019-01-15T21:20:31.527Z,85.92
2019-01-15T21:23:18.236Z,85.52
2019-01-15T21:25:55.864Z,85.52
2019-01-15T21:28:42.968Z,85.57
2019-01-15T21:31:29.627Z,85.62
2019-01-15T21:34:00.310Z,85.62
2019-01-15T21:36:36.902Z,85.04
2019-01-15T21:39:11.328Z,85.04
2019-01-15T21:41:46.234Z,84.71
2019-01-15T21:44:16.398Z,84.06
2019-01-15T21:46:46.847Z,84.06
2019-01-15T21:49:23.333Z,84.22
2019-01-15T21:52:02.663Z,84.16
2019-01-15T21:54:41.864Z,84.16
2019-01-15T21:57:21.429Z,83.99
2019-01-15T21:59:54.853Z,83.86
2019-01-15T22:02:25.435Z,84.20
2019-01-15T22:05:00.216Z,84.08
2019-01-15T22:07:32.066Z,84.10
2019-01-15T22:10:10.061Z,84.11
2019-01-15T22:12:49.570Z,84.26
2019-01-15T22:15:20.028Z,84.13
2019-01-15T22:17:50.469Z,84.35
2019-01-15T22:20:24.333Z,84.37
2019-01-15T22:22:56.484Z,84.51
2019-01-15T22:25:27.166Z,84.58
2019-01-15T22:28:13.280Z,84.69
2019-01-15T22:30:46.918Z,84.80
2019-01-15T22:33:20.494Z,85.06
2019-01-15T22:36:18.067Z,85.30
2019-01-15T22:39:21.089Z,85.30
2019-01-15T22:42:19.814Z,84.83
2019-01-15T22:44:50.479Z,84.63
2019-01-15T22:47:40.301Z,84.22
2019-01-15T22:50:16.025Z,84.07
2019-01-15T22:53:04.049Z,84.11
2019-01-15T22:55:53.543Z,84.47
2019-01-15T22:58:29.807Z,84.47
2019-01-15T23:01:20.387Z,84.29
2019-01-15T23:03:53.498Z,84.41
2019-01-15T23:06:32.202Z,84.53
2019-01-15T23:09:08.337Z,84.54
2019-01-15T23:11:44.598Z,84.54
2019-01-15T23:14:32.745Z,84.42
2019-01-15T23:17:05.569Z,84.26
2019-01-15T23:19:44.750Z,84.19
2019-01-15T23:22:30.635Z,84.96
2019-01-15T23:25:16.861Z,84.96
2019-01-15T23:28:02.243Z,85.21
2019-01-15T23:30:48.816Z,85.13
2019-01-15T23:33:21.579Z,85.15
2019-01-15T23:35:54.110Z,85.56
2019-01-15T23:38:24.199Z,85.57
2019-01-15T23:41:10.571Z,85.57
2019-01-15T23:43:57.155Z,84.98
2019-01-15T23:46:28.684Z,84.98
2019-01-15T23:48:58.773Z,84.43
2019-01-15T23:51:44.813Z,84.43
2019-01-15T23:54:14.968Z,84.13
2019-01-15T23:56:54.783Z,84.29
2019-01-15T23:59:27.649Z,84.29
